createdAt,value
2018-07-15T00:02:09.821Z,37.60
2018-07-15T00:04:39.394Z,37.70
2018-07-15T00:07:08.802Z,37.80
2018-07-15T00:09:38.185Z,37.80
2018-07-15T00:12:07.794Z,38.10
2018-07-15T00:14:37.154Z,38.30
2018-07-15T00:17:06.951Z,38.50
2018-07-15T00:19:36.498Z,38.50
2018-07-15T00:22:05.909Z,38.50
2018-07-15T00:24:35.332Z,38.50
2018-07-15T00:27:04.754Z,38.40
2018-07-15T00:29:34.149Z,38.50
2018-07-15T00:32:03.572Z,38.60
2018-07-15T00:34:32.892Z,38.70
2018-07-15T00:37:02.266Z,38.90
2018-07-15T00:39:31.641Z,39.40
2018-07-15T00:42:01.117Z,39.40
2018-07-15T00:44:30.487Z,39.40
2018-07-15T00:47:00.923Z,39.40
2018-07-15T00:49:30.422Z,39.40
2018-07-15T00:52:00.011Z,39.50
2018-07-15T00:54:30.040Z,39.40
2018-07-15T00:56:59.406Z,39.60
2018-07-15T00:59:28.931Z,39.50
2018-07-15T01:01:58.451Z,39.70
2018-07-15T01:04:27.819Z,39.70
2018-07-15T01:06:57.263Z,39.80
2018-07-15T01:09:26.844Z,39.80
2018-07-15T01:11:56.208Z,39.70
2018-07-15T01:14:25.574Z,39.70
2018-07-15T01:16:55.140Z,39.60
2018-07-15T01:19:24.523Z,39.50
2018-07-15T01:21:54.024Z,39.70
2018-07-15T01:24:23.360Z,39.70
2018-07-15T01:26:52.711Z,39.70
2018-07-15T01:29:22.616Z,39.90
2018-07-15T01:34:21.176Z,40.50
2018-07-15T01:36:50.627Z,40.40
2018-07-15T01:39:19.953Z,40.40
2018-07-15T01:41:49.468Z,40.30
2018-07-15T01:44:19.436Z,40.70
2018-07-15T01:46:48.888Z,40.90
2018-07-15T01:49:18.219Z,41.00
2018-07-15T01:51:47.592Z,41.00
2018-07-15T01:54:17.474Z,40.80
2018-07-15T01:56:46.863Z,40.90
2018-07-15T01:59:16.256Z,40.90
2018-07-15T02:01:45.604Z,41.20
2018-07-15T02:04:15.040Z,41.30
2018-07-15T02:06:44.424Z,41.60
2018-07-15T02:09:13.745Z,41.80
2018-07-15T02:11:43.253Z,41.90
2018-07-15T02:14:12.763Z,42.10
2018-07-15T02:16:42.080Z,42.40
2018-07-15T02:21:40.491Z,43.10
2018-07-15T02:24:10.419Z,43.30
2018-07-15T02:26:39.888Z,43.50
2018-07-15T02:29:09.378Z,43.70
2018-07-15T02:31:38.894Z,43.80
2018-07-15T02:34:09.634Z,43.70
2018-07-15T02:36:39.063Z,43.70
2018-07-15T02:39:09.751Z,43.70
2018-07-15T02:41:39.149Z,43.70
2018-07-15T02:44:09.175Z,43.70
2018-07-15T02:46:38.583Z,43.90
2018-07-15T02:49:07.990Z,44.20
2018-07-15T02:51:37.441Z,44.30
2018-07-15T02:54:07.157Z,44.00
2018-07-15T02:56:36.498Z,43.80
2018-07-15T02:59:06.232Z,43.90
2018-07-15T03:01:35.640Z,44.10
2018-07-15T03:04:05.016Z,44.20
2018-07-15T03:06:34.500Z,44.20
2018-07-15T03:09:05.236Z,44.30
2018-07-15T03:14:03.614Z,44.50
2018-07-15T03:16:33.003Z,44.50
2018-07-15T03:19:02.491Z,44.50
2018-07-15T03:21:32.241Z,44.50
2018-07-15T03:24:02.211Z,44.70
2018-07-15T03:26:31.639Z,44.90
2018-07-15T03:29:01.039Z,44.90
2018-07-15T03:31:30.440Z,45.10
2018-07-15T03:33:59.954Z,45.10
2018-07-15T03:36:29.855Z,45.30
2018-07-15T03:38:59.208Z,45.50
2018-07-15T03:41:28.600Z,45.40
2018-07-15T03:43:58.049Z,45.30
2018-07-15T03:46:27.344Z,45.20
2018-07-15T03:48:57.412Z,45.10
2018-07-15T03:51:26.720Z,45.90
2018-07-15T03:53:56.271Z,45.30
2018-07-15T03:56:25.708Z,45.60
2018-07-15T03:58:55.001Z,45.80
2018-07-15T04:01:25.174Z,45.90
2018-07-15T04:03:54.491Z,46.20
2018-07-15T04:06:24.013Z,46.30
2018-07-15T04:08:53.523Z,46.40
2018-07-15T04:11:22.787Z,46.50
2018-07-15T04:13:52.523Z,46.70
2018-07-15T04:16:21.936Z,46.60
2018-07-15T04:18:52.008Z,46.90
2018-07-15T04:21:21.311Z,47.10
2018-07-15T04:23:50.712Z,47.10
2018-07-15T04:26:20.759Z,47.10
2018-07-15T04:28:50.259Z,47.00
2018-07-15T04:31:19.748Z,47.00
2018-07-15T04:33:49.142Z,46.90
2018-07-15T04:36:18.659Z,47.00
2018-07-15T04:38:49.005Z,47.00
2018-07-15T04:41:18.459Z,46.80
2018-07-15T04:43:48.391Z,47.00
2018-07-15T04:46:18.017Z,47.00
2018-07-15T04:48:47.627Z,47.00
2018-07-15T04:51:17.142Z,47.00
2018-07-15T04:53:47.350Z,47.10
2018-07-15T04:56:16.701Z,47.10
2018-07-15T04:58:46.032Z,47.20
2018-07-15T05:01:15.576Z,47.60
2018-07-15T05:03:45.171Z,47.70
2018-07-15T05:06:15.011Z,47.90
2018-07-15T05:08:44.620Z,47.90
2018-07-15T05:11:13.923Z,47.90
2018-07-15T05:13:43.314Z,47.80
2018-07-15T05:16:12.700Z,47.60
2018-07-15T05:18:42.780Z,48.20
2018-07-15T05:21:12.224Z,47.80
2018-07-15T05:23:41.613Z,47.40
2018-07-15T05:26:11.104Z,47.50
2018-07-15T05:28:40.504Z,47.50
2018-07-15T05:31:09.897Z,47.60
2018-07-15T05:33:40.015Z,47.70
2018-07-15T05:36:09.418Z,47.80
2018-07-15T05:38:38.997Z,48.80
2018-07-15T05:41:08.609Z,47.70
2018-07-15T05:43:38.495Z,47.60
2018-07-15T05:46:07.907Z,47.50
2018-07-15T05:48:37.441Z,47.60
2018-07-15T05:51:07.193Z,47.50
2018-07-15T05:53:36.567Z,47.60
2018-07-15T05:58:35.041Z,47.70
2018-07-15T06:01:04.674Z,47.80
2018-07-15T06:03:34.204Z,47.70
2018-07-15T06:06:03.626Z,47.60
2018-07-15T06:08:33.010Z,47.90
2018-07-15T06:11:02.643Z,48.20
2018-07-15T06:13:32.135Z,47.90
2018-07-15T06:16:01.454Z,47.80
2018-07-15T06:18:30.834Z,48.40
2018-07-15T06:21:00.350Z,47.80
2018-07-15T06:23:29.779Z,47.80
2018-07-15T06:25:59.299Z,47.90
2018-07-15T06:28:29.488Z,47.80
2018-07-15T06:30:58.938Z,47.70
2018-07-15T06:33:28.904Z,47.70
2018-07-15T06:35:58.209Z,47.80
2018-07-15T06:38:27.652Z,48.10
2018-07-15T06:43:27.083Z,48.10
2018-07-15T06:45:57.117Z,48.10
2018-07-15T06:48:26.481Z,48.10
2018-07-15T06:50:56.115Z,48.20
2018-07-15T06:53:25.420Z,48.40
2018-07-15T06:55:54.991Z,48.10
2018-07-15T06:58:24.335Z,47.80
2018-07-15T07:00:53.824Z,47.60
2018-07-15T07:03:23.263Z,47.60
2018-07-15T07:05:52.689Z,47.40
2018-07-15T07:08:22.168Z,47.00
2018-07-15T07:10:51.549Z,46.80
2018-07-15T07:13:20.933Z,46.80
2018-07-15T07:15:50.320Z,46.70
2018-07-15T07:18:19.937Z,46.30
2018-07-15T07:20:50.175Z,47.10
2018-07-15T07:23:19.731Z,46.50
2018-07-15T07:25:49.135Z,46.60
2018-07-15T07:28:18.478Z,46.50
2018-07-15T07:30:48.061Z,46.60
2018-07-15T07:33:17.788Z,46.60
2018-07-15T07:35:47.172Z,46.20
2018-07-15T07:38:16.652Z,46.10
2018-07-15T07:40:46.313Z,46.20
2018-07-15T07:43:15.828Z,46.00
2018-07-15T07:45:45.379Z,45.80
2018-07-15T07:48:14.832Z,45.50
2018-07-15T07:50:44.448Z,45.30
2018-07-15T07:53:14.526Z,44.90
2018-07-15T07:55:43.873Z,44.90
2018-07-15T07:58:13.344Z,44.70
2018-07-15T08:00:42.709Z,44.60
2018-07-15T08:03:12.084Z,44.40
2018-07-15T08:05:41.402Z,43.70
2018-07-15T08:08:10.787Z,43.40
2018-07-15T08:10:40.164Z,43.30
2018-07-15T08:13:10.313Z,43.00
2018-07-15T08:15:39.932Z,43.10
2018-07-15T08:18:09.343Z,42.80
2018-07-15T08:20:38.966Z,42.50
2018-07-15T08:23:08.732Z,42.40
2018-07-15T08:25:38.227Z,42.00
2018-07-15T08:28:07.875Z,42.60
2018-07-15T08:30:48.541Z,41.40
2018-07-15T08:33:18.616Z,41.60
2018-07-15T08:35:48.068Z,41.40
2018-07-15T08:38:17.570Z,40.80
2018-07-15T08:40:47.891Z,40.40
2018-07-15T08:45:46.093Z,40.90
2018-07-15T08:48:15.509Z,40.50
2018-07-15T08:50:45.012Z,39.90
2018-07-15T08:53:14.633Z,39.60
2018-07-15T08:55:44.064Z,39.60
2018-07-15T08:58:13.541Z,39.40
2018-07-15T09:00:42.910Z,39.30
2018-07-15T09:03:12.351Z,39.10
2018-07-15T09:05:41.669Z,39.10
2018-07-15T09:08:11.120Z,38.30
2018-07-15T09:10:40.698Z,38.60
2018-07-15T09:13:10.139Z,38.70
2018-07-15T09:15:39.538Z,38.50
2018-07-15T09:18:08.857Z,38.00
2018-07-15T09:20:39.073Z,37.30
2018-07-15T09:23:08.611Z,37.20
2018-07-15T09:25:38.249Z,37.50
2018-07-15T09:28:07.743Z,37.50
2018-07-15T09:30:37.193Z,37.30
2018-07-15T09:33:06.677Z,37.30
2018-07-15T09:35:36.133Z,37.30
2018-07-15T09:38:05.958Z,37.40
2018-07-15T09:40:35.400Z,37.40
2018-07-15T09:43:04.812Z,37.30
2018-07-15T09:45:34.236Z,37.30
2018-07-15T09:48:03.831Z,36.40
2018-07-15T09:50:33.384Z,36.80
2018-07-15T09:53:02.844Z,36.60
2018-07-15T09:55:32.166Z,36.20
2018-07-15T09:58:01.553Z,36.30
2018-07-15T10:00:36.135Z,36.30
2018-07-15T10:03:05.691Z,36.10
2018-07-15T10:05:35.094Z,36.20
2018-07-15T10:08:05.103Z,35.90
2018-07-15T10:10:34.511Z,34.90
2018-07-15T10:13:04.034Z,34.60
2018-07-15T10:15:33.575Z,35.30
2018-07-15T10:18:04.382Z,33.60
2018-07-15T10:20:34.401Z,33.40
2018-07-15T10:23:03.905Z,33.10
2018-07-15T10:25:33.321Z,33.00
2018-07-15T10:28:02.820Z,33.10
2018-07-15T10:30:32.115Z,33.20
2018-07-15T10:33:01.499Z,33.20
2018-07-15T10:35:31.447Z,33.30
2018-07-15T10:38:00.866Z,33.30
2018-07-15T10:40:30.977Z,33.10
2018-07-15T10:43:00.604Z,33.30
2018-07-15T10:45:29.998Z,32.90
2018-07-15T10:47:59.433Z,32.50
2018-07-15T10:50:28.809Z,32.70
2018-07-15T10:52:58.296Z,33.20
2018-07-15T10:57:57.707Z,31.40
2018-07-15T11:00:27.197Z,31.80
2018-07-15T11:02:56.762Z,31.30
2018-07-15T11:05:26.178Z,31.10
2018-07-15T11:07:55.565Z,32.00
2018-07-15T11:10:24.943Z,30.90
2018-07-15T11:12:54.318Z,31.00
2018-07-15T11:15:26.464Z,30.60
2018-07-15T11:17:55.852Z,30.60
2018-07-15T11:20:26.064Z,30.60
2018-07-15T11:25:24.599Z,30.70
2018-07-15T11:27:54.107Z,29.70
2018-07-15T11:30:24.132Z,29.70
2018-07-15T11:32:53.668Z,30.30
2018-07-15T11:35:23.322Z,30.30
2018-07-15T11:37:52.751Z,30.30
2018-07-15T11:40:22.201Z,30.40
2018-07-15T11:42:51.589Z,30.00
2018-07-15T11:47:49.883Z,29.70
2018-07-15T11:50:19.940Z,29.40
2018-07-15T11:52:50.621Z,29.40
2018-07-15T11:55:20.736Z,29.00
2018-07-15T11:57:54.082Z,28.50
2018-07-15T12:00:23.473Z,28.70
2018-07-15T12:02:52.936Z,28.60
2018-07-15T12:05:22.382Z,28.40
2018-07-15T12:07:51.973Z,28.50
2018-07-15T12:10:21.329Z,29.00
2018-07-15T12:12:50.789Z,29.50
2018-07-15T12:15:20.373Z,29.50
2018-07-15T12:17:50.108Z,29.50
2018-07-15T12:20:20.039Z,29.50
2018-07-15T12:22:50.052Z,28.60
2018-07-15T12:25:20.385Z,28.10
2018-07-15T12:27:50.877Z,27.50
2018-07-15T12:30:20.235Z,27.30
2018-07-15T12:32:50.036Z,27.20
2018-07-15T12:35:19.524Z,27.50
2018-07-15T12:37:50.176Z,27.10
2018-07-15T12:40:19.624Z,26.90
2018-07-15T12:42:49.019Z,27.20
2018-07-15T12:45:18.553Z,27.10
2018-07-15T12:47:48.177Z,26.00
2018-07-15T12:50:17.678Z,26.70
2018-07-15T12:52:47.242Z,27.00
2018-07-15T12:55:16.849Z,27.10
2018-07-15T12:57:46.238Z,26.80
2018-07-15T13:00:15.894Z,26.50
2018-07-15T13:02:45.066Z,26.50
2018-07-15T13:05:14.658Z,25.90
2018-07-15T13:07:44.058Z,26.00
2018-07-15T13:10:13.478Z,26.00
2018-07-15T13:12:42.890Z,26.10
2018-07-15T13:17:41.140Z,26.40
2018-07-15T13:20:10.666Z,26.20
2018-07-15T13:22:40.032Z,26.20
2018-07-15T13:25:09.332Z,25.90
2018-07-15T13:27:38.756Z,26.10
2018-07-15T13:30:08.326Z,26.20
2018-07-15T13:32:37.725Z,26.20
2018-07-15T13:35:07.847Z,26.20
2018-07-15T13:37:37.279Z,25.80
2018-07-15T13:40:06.791Z,25.90
2018-07-15T13:42:36.130Z,25.60
2018-07-15T13:45:05.535Z,25.80
2018-07-15T13:47:34.943Z,25.60
2018-07-15T13:50:04.839Z,25.60
2018-07-15T13:52:34.271Z,25.60
2018-07-15T13:55:04.111Z,25.70
2018-07-15T13:57:34.283Z,25.60
2018-07-15T14:00:04.636Z,25.50
2018-07-15T14:02:34.082Z,25.50
2018-07-15T14:05:03.492Z,25.10
2018-07-15T14:07:32.862Z,24.90
2018-07-15T14:10:02.483Z,24.90
2018-07-15T14:12:31.828Z,24.60
2018-07-15T14:15:01.178Z,24.30
2018-07-15T14:17:30.499Z,24.20
2018-07-15T14:19:59.989Z,24.30
2018-07-15T14:22:29.301Z,24.30
2018-07-15T14:24:58.636Z,24.50
2018-07-15T14:27:27.938Z,24.70
2018-07-15T14:29:57.264Z,24.30
2018-07-15T14:32:26.756Z,24.10
2018-07-15T14:34:56.061Z,24.40
2018-07-15T14:37:25.521Z,24.20
2018-07-15T14:39:54.978Z,24.20
2018-07-15T14:42:24.323Z,24.30
2018-07-15T14:44:54.266Z,24.30
2018-07-15T14:50:02.910Z,24.00
2018-07-15T14:52:32.232Z,24.30
2018-07-15T14:55:01.647Z,24.00
2018-07-15T14:57:30.927Z,24.00
2018-07-15T15:00:00.464Z,23.90
2018-07-15T15:02:30.536Z,23.80
2018-07-15T15:04:59.990Z,23.60
2018-07-15T15:07:29.312Z,23.90
2018-07-15T15:09:58.632Z,23.40
2018-07-15T15:12:27.948Z,23.10
2018-07-15T15:14:58.124Z,23.40
2018-07-15T15:17:27.539Z,23.00
2018-07-15T15:22:26.762Z,23.00
2018-07-15T15:24:56.107Z,23.00
2018-07-15T15:27:25.605Z,23.00
2018-07-15T15:29:55.494Z,22.80
2018-07-15T15:32:25.073Z,23.00
2018-07-15T15:34:54.491Z,22.90
2018-07-15T15:37:24.228Z,22.80
2018-07-15T15:39:53.624Z,22.80
2018-07-15T15:42:23.095Z,22.90
2018-07-15T15:44:52.681Z,23.00
2018-07-15T15:47:21.928Z,23.00
2018-07-15T15:49:51.367Z,23.00
2018-07-15T15:52:20.761Z,22.80
2018-07-15T15:54:50.162Z,22.70
2018-07-15T15:57:19.581Z,22.40
2018-07-15T15:59:49.636Z,22.60
2018-07-15T16:02:18.986Z,22.90
2018-07-15T16:07:17.364Z,22.60
2018-07-15T16:09:46.752Z,22.10
2018-07-15T16:12:16.196Z,21.80
2018-07-15T16:14:45.623Z,21.70
2018-07-15T16:17:15.345Z,21.70
2018-07-15T16:19:44.741Z,21.70
2018-07-15T16:22:14.116Z,21.70
2018-07-15T16:24:43.524Z,21.90
2018-07-15T16:27:12.880Z,22.10
2018-07-15T16:32:11.268Z,22.00
2018-07-15T16:34:40.670Z,22.00
2018-07-15T16:37:10.073Z,22.00
2018-07-15T16:39:39.368Z,21.70
2018-07-15T16:42:08.748Z,21.90
2018-07-15T16:44:38.086Z,21.90
2018-07-15T16:47:07.751Z,22.10
2018-07-15T16:49:37.215Z,22.00
2018-07-15T16:52:06.581Z,22.40
2018-07-15T16:54:36.015Z,22.40
2018-07-15T16:57:05.557Z,22.60
2018-07-15T16:59:35.271Z,22.50
2018-07-15T17:02:04.855Z,22.80
2018-07-15T17:04:34.566Z,22.80
2018-07-15T17:07:04.053Z,22.70
2018-07-15T17:09:33.346Z,22.70
2018-07-15T17:12:03.097Z,22.70
2018-07-15T17:14:33.040Z,22.70
2018-07-15T17:17:03.351Z,22.60
2018-07-15T17:19:33.527Z,22.30
2018-07-15T17:22:02.973Z,22.10
2018-07-15T17:24:32.584Z,21.90
2018-07-15T17:27:02.090Z,21.80
2018-07-15T17:29:31.394Z,21.60
2018-07-15T17:32:01.501Z,21.60
2018-07-15T17:34:31.024Z,21.50
2018-07-15T17:37:00.480Z,21.70
2018-07-15T17:39:30.252Z,21.70
2018-07-15T17:41:59.646Z,21.80
2018-07-15T17:46:58.162Z,21.70
2018-07-15T17:49:27.587Z,21.60
2018-07-15T17:51:57.585Z,21.60
2018-07-15T17:54:27.096Z,21.50
2018-07-15T17:56:56.383Z,21.70
2018-07-15T17:59:26.013Z,21.60
2018-07-15T18:01:56.730Z,21.70
2018-07-15T18:04:26.596Z,21.80
2018-07-15T18:06:56.660Z,21.90
2018-07-15T18:09:26.192Z,21.60
2018-07-15T18:11:55.542Z,21.90
2018-07-15T18:14:24.991Z,21.90
2018-07-15T18:16:54.414Z,22.30
2018-07-15T18:19:23.877Z,22.60
2018-07-15T18:21:53.502Z,22.60
2018-07-15T18:24:23.918Z,22.60
2018-07-15T18:26:53.303Z,22.60
2018-07-15T18:29:23.084Z,22.60
2018-07-15T18:31:52.804Z,22.60
2018-07-15T18:34:22.546Z,22.60
2018-07-15T18:36:53.137Z,22.60
2018-07-15T18:39:22.487Z,22.60
2018-07-15T18:41:51.956Z,22.70
2018-07-15T18:44:21.546Z,22.60
2018-07-15T18:46:50.996Z,22.60
2018-07-15T18:51:49.572Z,22.60
2018-07-15T18:54:26.109Z,22.60
2018-07-15T18:57:00.491Z,22.60
2018-07-15T18:59:37.266Z,22.60
2018-07-15T19:02:09.733Z,22.50
2018-07-15T19:04:40.111Z,22.50
2018-07-15T19:07:09.512Z,22.70
2018-07-15T19:09:38.847Z,22.70
2018-07-15T19:12:08.357Z,22.70
2018-07-15T19:14:37.898Z,22.60
2018-07-15T19:17:07.761Z,22.60
2018-07-15T19:19:37.197Z,22.60
2018-07-15T19:22:06.696Z,22.50
2018-07-15T19:24:36.448Z,22.70
2018-07-15T19:27:06.964Z,22.60
2018-07-15T19:29:36.283Z,22.60
2018-07-15T19:32:05.970Z,22.60
2018-07-15T19:34:35.768Z,23.00
2018-07-15T19:37:05.774Z,23.50
2018-07-15T19:39:35.321Z,23.40
2018-07-15T19:42:04.859Z,23.40
2018-07-15T19:44:34.504Z,23.10
2018-07-15T19:47:03.827Z,23.00
2018-07-15T19:49:33.150Z,23.10
2018-07-15T19:52:02.968Z,23.10
2018-07-15T19:54:32.507Z,23.30
2018-07-15T19:59:30.798Z,23.30
2018-07-15T20:02:00.181Z,23.90
2018-07-15T20:04:29.529Z,23.60
2018-07-15T20:06:59.169Z,24.30
2018-07-15T20:09:28.545Z,24.50
2018-07-15T20:11:58.429Z,24.50
2018-07-15T20:14:27.889Z,24.60
2018-07-15T20:16:57.264Z,24.50
2018-07-15T20:19:26.616Z,24.40
2018-07-15T20:21:55.941Z,24.30
2018-07-15T20:24:25.309Z,24.40
2018-07-15T20:26:54.727Z,24.50
2018-07-15T20:29:24.049Z,24.80
2018-07-15T20:31:53.370Z,25.30
2018-07-15T20:34:22.910Z,25.10
2018-07-15T20:36:52.388Z,25.40
2018-07-15T20:39:21.841Z,25.80
2018-07-15T20:41:51.517Z,25.80
2018-07-15T20:44:22.053Z,25.80
2018-07-15T20:46:52.399Z,27.10
2018-07-15T20:49:22.136Z,26.00
2018-07-15T20:51:51.870Z,26.30
2018-07-15T20:54:21.423Z,26.30
2018-07-15T20:56:51.686Z,26.80
2018-07-15T20:59:21.244Z,26.50
2018-07-15T21:01:50.955Z,27.00
2018-07-15T21:04:20.946Z,27.30
2018-07-15T21:06:50.545Z,27.60
2018-07-15T21:09:20.324Z,27.30
2018-07-15T21:11:59.003Z,27.50
2018-07-15T21:14:29.096Z,27.50
2018-07-15T21:16:58.747Z,27.30
2018-07-15T21:21:56.969Z,28.80
2018-07-15T21:29:25.072Z,28.90
2018-07-15T21:31:54.381Z,28.70
2018-07-15T21:34:24.670Z,28.40
2018-07-15T21:36:54.083Z,29.20
2018-07-15T21:39:23.589Z,29.40
2018-07-15T21:41:53.203Z,29.40
2018-07-15T21:44:22.600Z,28.60
2018-07-15T21:46:52.233Z,28.40
2018-07-15T21:49:21.579Z,28.50
2018-07-15T21:51:50.967Z,28.80
2018-07-15T21:56:49.253Z,29.70
2018-07-15T21:59:18.655Z,29.30
2018-07-15T22:01:48.073Z,29.20
2018-07-15T22:04:17.855Z,29.20
2018-07-15T22:06:58.577Z,29.50
2018-07-15T22:09:50.380Z,29.20
2018-07-15T22:12:20.359Z,29.20
2018-07-15T22:14:49.823Z,28.80
2018-07-15T22:17:19.299Z,29.20
2018-07-15T22:19:48.539Z,29.10
2018-07-15T22:22:18.018Z,29.10
2018-07-15T22:24:47.952Z,29.10
2018-07-15T22:27:17.404Z,29.10
2018-07-15T22:29:46.681Z,29.10
2018-07-15T22:32:16.685Z,29.10
2018-07-15T22:34:46.695Z,29.10
2018-07-15T22:37:16.088Z,29.30
2018-07-15T22:39:45.495Z,29.50
2018-07-15T22:42:15.001Z,29.00
2018-07-15T22:44:44.407Z,29.00
2018-07-15T22:47:13.877Z,29.40
2018-07-15T22:49:43.387Z,29.50
2018-07-15T22:52:13.039Z,30.00
2018-07-15T22:54:42.340Z,29.60
2018-07-15T22:57:12.343Z,29.90
2018-07-15T22:59:41.652Z,30.10
2018-07-15T23:02:11.051Z,30.50
2018-07-15T23:05:55.458Z,30.80
2018-07-15T23:08:25.914Z,30.90
2018-07-15T23:10:55.234Z,31.10
2018-07-15T23:13:24.625Z,31.20
2018-07-15T23:15:54.043Z,32.40
2018-07-15T23:18:23.425Z,32.90
2018-07-15T23:20:53.419Z,32.10
2018-07-15T23:23:22.867Z,31.90
2018-07-15T23:25:52.240Z,32.80
2018-07-15T23:28:21.569Z,31.80
2018-07-15T23:30:50.985Z,32.00
2018-07-15T23:33:20.319Z,32.70
2018-07-15T23:35:49.798Z,32.60
2018-07-15T23:38:19.320Z,32.60
2018-07-15T23:40:48.815Z,32.60
2018-07-15T23:43:18.166Z,32.40
2018-07-15T23:45:47.675Z,32.40
2018-07-15T23:48:17.107Z,32.30
2018-07-15T23:50:46.468Z,32.20
2018-07-15T23:53:15.819Z,32.60
2018-07-15T23:55:45.262Z,32.60
2018-07-15T23:58:14.603Z,32.30
